sensor_id;sensor_type;location;lat;lon;timestamp;P1;durP1;ratioP1;P2;durP2;ratioP2
55312;SDS011;46892;45.668;11.756;2022-11-18T00:01:29;44.47;;;32.13;;
55312;SDS011;46892;45.668;11.756;2022-11-18T00:03:54;42.17;;;30.73;;
55312;SDS011;46892;45.668;11.756;2022-11-18T00:06:21;42.73;;;30.50;;
55312;SDS011;46892;45.668;11.756;2022-11-18T00:08:49;42.83;;;30.10;;
55312;SDS011;46892;45.668;11.756;2022-11-18T00:11:17;42.63;;;30.70;;
55312;SDS011;46892;45.668;11.756;2022-11-18T00:14:03;46.00;;;31.73;;
55312;SDS011;46892;45.668;11.756;2022-11-18T00:19:11;44.10;;;30.47;;
55312;SDS011;46892;45.668;11.756;2022-11-18T00:21:36;43.67;;;29.97;;
55312;SDS011;46892;45.668;11.756;2022-11-18T00:24:02;50.90;;;32.90;;
55312;SDS011;46892;45.668;11.756;2022-11-18T00:26:28;46.30;;;32.37;;
55312;SDS011;46892;45.668;11.756;2022-11-18T00:28:53;47.13;;;32.53;;
55312;SDS011;46892;45.668;11.756;2022-11-18T00:31:19;43.57;;;31.17;;
55312;SDS011;46892;45.668;11.756;2022-11-18T00:33:45;49.27;;;34.57;;
55312;SDS011;46892;45.668;11.756;2022-11-18T00:36:11;54.77;;;36.43;;
55312;SDS011;46892;45.668;11.756;2022-11-18T00:38:37;54.77;;;37.10;;
55312;SDS011;46892;45.668;11.756;2022-11-18T00:43:35;53.20;;;36.87;;
55312;SDS011;46892;45.668;11.756;2022-11-18T00:46:01;56.77;;;37.87;;
55312;SDS011;46892;45.668;11.756;2022-11-18T00:48:29;56.13;;;37.40;;
55312;SDS011;46892;45.668;11.756;2022-11-18T00:50:55;55.73;;;37.57;;
55312;SDS011;46892;45.668;11.756;2022-11-18T00:53:23;60.73;;;39.13;;
55312;SDS011;46892;45.668;11.756;2022-11-18T00:55:50;55.77;;;36.77;;
55312;SDS011;46892;45.668;11.756;2022-11-18T00:58:15;57.50;;;40.00;;
55312;SDS011;46892;45.668;11.756;2022-11-18T01:00:42;61.87;;;40.30;;
55312;SDS011;46892;45.668;11.756;2022-11-18T01:03:09;58.00;;;38.77;;
55312;SDS011;46892;45.668;11.756;2022-11-18T01:05:36;57.60;;;39.57;;
55312;SDS011;46892;45.668;11.756;2022-11-18T01:08:03;53.97;;;37.17;;
55312;SDS011;46892;45.668;11.756;2022-11-18T01:10:33;60.17;;;39.85;;
55312;SDS011;46892;45.668;11.756;2022-11-18T01:12:59;61.67;;;39.77;;
55312;SDS011;46892;45.668;11.756;2022-11-18T01:15:54;58.93;;;38.17;;
55312;SDS011;46892;45.668;11.756;2022-11-18T01:18:22;60.93;;;39.00;;
55312;SDS011;46892;45.668;11.756;2022-11-18T01:20:50;62.80;;;39.37;;
55312;SDS011;46892;45.668;11.756;2022-11-18T01:23:16;57.13;;;37.63;;
55312;SDS011;46892;45.668;11.756;2022-11-18T01:25:43;61.50;;;39.23;;
55312;SDS011;46892;45.668;11.756;2022-11-18T01:28:11;58.57;;;38.00;;
55312;SDS011;46892;45.668;11.756;2022-11-18T01:30:38;52.47;;;36.73;;
55312;SDS011;46892;45.668;11.756;2022-11-18T01:33:06;53.53;;;36.53;;
55312;SDS011;46892;45.668;11.756;2022-11-18T01:35:35;54.60;;;37.13;;
55312;SDS011;46892;45.668;11.756;2022-11-18T01:40:29;61.37;;;39.47;;
55312;SDS011;46892;45.668;11.756;2022-11-18T01:42:55;59.63;;;40.53;;
55312;SDS011;46892;45.668;11.756;2022-11-18T01:45:25;61.67;;;41.50;;
55312;SDS011;46892;45.668;11.756;2022-11-18T01:48:07;59.60;;;39.30;;
55312;SDS011;46892;45.668;11.756;2022-11-18T01:50:37;59.25;;;39.55;;
55312;SDS011;46892;45.668;11.756;2022-11-18T01:53:10;59.97;;;39.90;;
55312;SDS011;46892;45.668;11.756;2022-11-18T01:55:40;58.63;;;39.63;;
55312;SDS011;46892;45.668;11.756;2022-11-18T01:58:11;54.90;;;37.73;;
55312;SDS011;46892;45.668;11.756;2022-11-18T02:00:43;56.30;;;37.63;;
55312;SDS011;46892;45.668;11.756;2022-11-18T02:03:09;57.20;;;37.13;;
55312;SDS011;46892;45.668;11.756;2022-11-18T02:05:36;55.03;;;38.00;;
55312;SDS011;46892;45.668;11.756;2022-11-18T02:08:04;55.33;;;36.50;;
55312;SDS011;46892;45.668;11.756;2022-11-18T02:10:31;49.83;;;34.03;;
55312;SDS011;46892;45.668;11.756;2022-11-18T02:12:57;50.33;;;34.03;;
55312;SDS011;46892;45.668;11.756;2022-11-18T02:15:46;52.63;;;35.73;;
55312;SDS011;46892;45.668;11.756;2022-11-18T02:27:26;52.57;;;36.43;;
55312;SDS011;46892;45.668;11.756;2022-11-18T02:29:52;55.57;;;36.37;;
55312;SDS011;46892;45.668;11.756;2022-11-18T02:32:28;48.00;;;34.23;;
55312;SDS011;46892;45.668;11.756;2022-11-18T02:40:36;52.80;;;35.10;;
55312;SDS011;46892;45.668;11.756;2022-11-18T02:43:09;51.80;;;36.37;;
55312;SDS011;46892;45.668;11.756;2022-11-18T02:45:39;53.30;;;35.97;;
55312;SDS011;46892;45.668;11.756;2022-11-18T02:48:09;55.90;;;35.60;;
55312;SDS011;46892;45.668;11.756;2022-11-18T02:50:37;53.93;;;34.73;;
55312;SDS011;46892;45.668;11.756;2022-11-18T02:53:07;61.30;;;38.83;;
55312;SDS011;46892;45.668;11.756;2022-11-18T02:55:37;50.40;;;34.78;;
55312;SDS011;46892;45.668;11.756;2022-11-18T02:58:05;55.50;;;35.13;;
55312;SDS011;46892;45.668;11.756;2022-11-18T03:00:32;60.13;;;36.40;;
55312;SDS011;46892;45.668;11.756;2022-11-18T03:03:00;51.17;;;33.80;;
55312;SDS011;46892;45.668;11.756;2022-11-18T03:06:36;52.33;;;33.73;;
55312;SDS011;46892;45.668;11.756;2022-11-18T03:11:23;50.27;;;34.27;;
55312;SDS011;46892;45.668;11.756;2022-11-18T03:14:00;52.53;;;34.33;;
55312;SDS011;46892;45.668;11.756;2022-11-18T03:16:53;53.23;;;34.13;;
55312;SDS011;46892;45.668;11.756;2022-11-18T03:19:23;41.57;;;28.57;;
55312;SDS011;46892;45.668;11.756;2022-11-18T03:24:40;38.93;;;28.43;;
55312;SDS011;46892;45.668;11.756;2022-11-18T03:27:13;39.40;;;29.33;;
55312;SDS011;46892;45.668;11.756;2022-11-18T03:29:50;36.77;;;27.00;;
55312;SDS011;46892;45.668;11.756;2022-11-18T03:32:23;40.60;;;29.20;;
55312;SDS011;46892;45.668;11.756;2022-11-18T03:34:54;41.97;;;29.57;;
55312;SDS011;46892;45.668;11.756;2022-11-18T03:37:25;38.07;;;27.83;;
55312;SDS011;46892;45.668;11.756;2022-11-18T03:39:52;42.87;;;30.40;;
55312;SDS011;46892;45.668;11.756;2022-11-18T03:42:26;36.97;;;27.83;;
55312;SDS011;46892;45.668;11.756;2022-11-18T03:45:13;36.37;;;26.70;;
55312;SDS011;46892;45.668;11.756;2022-11-18T03:47:46;36.23;;;26.30;;
55312;SDS011;46892;45.668;11.756;2022-11-18T03:50:20;34.77;;;26.03;;
55312;SDS011;46892;45.668;11.756;2022-11-18T03:52:58;34.37;;;25.87;;
55312;SDS011;46892;45.668;11.756;2022-11-18T03:55:26;43.27;;;30.80;;
55312;SDS011;46892;45.668;11.756;2022-11-18T04:00:33;40.03;;;28.70;;
55312;SDS011;46892;45.668;11.756;2022-11-18T04:03:09;46.70;;;30.90;;
55312;SDS011;46892;45.668;11.756;2022-11-18T04:05:37;45.70;;;32.03;;
55312;SDS011;46892;45.668;11.756;2022-11-18T04:08:06;39.53;;;29.83;;
55312;SDS011;46892;45.668;11.756;2022-11-18T04:10:46;42.87;;;29.60;;
55312;SDS011;46892;45.668;11.756;2022-11-18T04:13:25;38.40;;;27.77;;
55312;SDS011;46892;45.668;11.756;2022-11-18T04:15:55;44.03;;;31.33;;
55312;SDS011;46892;45.668;11.756;2022-11-18T04:18:20;45.97;;;31.77;;
55312;SDS011;46892;45.668;11.756;2022-11-18T04:20:46;39.33;;;28.67;;
55312;SDS011;46892;45.668;11.756;2022-11-18T04:23:12;36.17;;;27.60;;
55312;SDS011;46892;45.668;11.756;2022-11-18T04:25:37;36.27;;;27.03;;
55312;SDS011;46892;45.668;11.756;2022-11-18T04:28:03;30.93;;;24.00;;
55312;SDS011;46892;45.668;11.756;2022-11-18T04:30:30;36.27;;;25.87;;
55312;SDS011;46892;45.668;11.756;2022-11-18T04:32:56;37.87;;;27.67;;
55312;SDS011;46892;45.668;11.756;2022-11-18T04:35:22;35.73;;;26.13;;
55312;SDS011;46892;45.668;11.756;2022-11-18T04:37:48;33.17;;;25.03;;
55312;SDS011;46892;45.668;11.756;2022-11-18T04:40:14;32.10;;;24.90;;
55312;SDS011;46892;45.668;11.756;2022-11-18T04:42:39;29.40;;;23.33;;
55312;SDS011;46892;45.668;11.756;2022-11-18T04:45:05;31.07;;;23.50;;
55312;SDS011;46892;45.668;11.756;2022-11-18T04:47:32;31.67;;;25.10;;
55312;SDS011;46892;45.668;11.756;2022-11-18T04:49:57;30.43;;;24.53;;
55312;SDS011;46892;45.668;11.756;2022-11-18T04:52:23;31.27;;;24.57;;
55312;SDS011;46892;45.668;11.756;2022-11-18T04:54:48;37.30;;;27.83;;
55312;SDS011;46892;45.668;11.756;2022-11-18T04:57:14;38.53;;;28.73;;
55312;SDS011;46892;45.668;11.756;2022-11-18T04:59:40;34.07;;;26.00;;
55312;SDS011;46892;45.668;11.756;2022-11-18T05:02:05;36.70;;;27.17;;
55312;SDS011;46892;45.668;11.756;2022-11-18T05:04:32;38.07;;;27.83;;
55312;SDS011;46892;45.668;11.756;2022-11-18T05:06:59;37.17;;;26.70;;
55312;SDS011;46892;45.668;11.756;2022-11-18T05:09:26;37.50;;;27.73;;
55312;SDS011;46892;45.668;11.756;2022-11-18T05:11:52;46.00;;;30.67;;
55312;SDS011;46892;45.668;11.756;2022-11-18T05:14:37;41.93;;;29.43;;
55312;SDS011;46892;45.668;11.756;2022-11-18T05:17:03;45.83;;;30.63;;
55312;SDS011;46892;45.668;11.756;2022-11-18T05:19:30;41.00;;;28.70;;
55312;SDS011;46892;45.668;11.756;2022-11-18T05:21:56;49.90;;;35.23;;
55312;SDS011;46892;45.668;11.756;2022-11-18T05:24:22;46.80;;;32.57;;
55312;SDS011;46892;45.668;11.756;2022-11-18T05:26:48;48.63;;;33.13;;
55312;SDS011;46892;45.668;11.756;2022-11-18T05:29:16;46.10;;;32.17;;
55312;SDS011;46892;45.668;11.756;2022-11-18T05:31:43;45.27;;;31.87;;
55312;SDS011;46892;45.668;11.756;2022-11-18T05:34:10;46.07;;;31.43;;
55312;SDS011;46892;45.668;11.756;2022-11-18T05:36:36;44.03;;;30.20;;
55312;SDS011;46892;45.668;11.756;2022-11-18T05:39:02;45.47;;;30.70;;
55312;SDS011;46892;45.668;11.756;2022-11-18T05:41:28;44.93;;;31.37;;
55312;SDS011;46892;45.668;11.756;2022-11-18T05:44:12;44.37;;;30.13;;
55312;SDS011;46892;45.668;11.756;2022-11-18T05:46:38;47.70;;;31.93;;
55312;SDS011;46892;45.668;11.756;2022-11-18T05:49:04;47.60;;;31.77;;
55312;SDS011;46892;45.668;11.756;2022-11-18T05:51:29;46.30;;;29.43;;
55312;SDS011;46892;45.668;11.756;2022-11-18T05:53:55;47.70;;;31.63;;
55312;SDS011;46892;45.668;11.756;2022-11-18T05:56:22;46.13;;;31.30;;
55312;SDS011;46892;45.668;11.756;2022-11-18T05:58:52;49.63;;;32.60;;
55312;SDS011;46892;45.668;11.756;2022-11-18T06:01:21;48.07;;;32.23;;
55312;SDS011;46892;45.668;11.756;2022-11-18T06:03:52;52.80;;;34.23;;
55312;SDS011;46892;45.668;11.756;2022-11-18T06:06:18;49.73;;;33.07;;
55312;SDS011;46892;45.668;11.756;2022-11-18T06:08:53;57.17;;;36.67;;
55312;SDS011;46892;45.668;11.756;2022-11-18T06:11:27;55.03;;;33.90;;
55312;SDS011;46892;45.668;11.756;2022-11-18T06:14:05;51.85;;;33.60;;
55312;SDS011;46892;45.668;11.756;2022-11-18T06:16:38;48.00;;;30.08;;
55312;SDS011;46892;45.668;11.756;2022-11-18T06:19:08;46.50;;;31.08;;
55312;SDS011;46892;45.668;11.756;2022-11-18T06:21:34;46.03;;;30.43;;
55312;SDS011;46892;45.668;11.756;2022-11-18T06:23:59;47.87;;;31.30;;
55312;SDS011;46892;45.668;11.756;2022-11-18T06:26:26;43.60;;;30.10;;
55312;SDS011;46892;45.668;11.756;2022-11-18T06:28:52;44.97;;;30.73;;
55312;SDS011;46892;45.668;11.756;2022-11-18T06:31:20;42.30;;;29.20;;
55312;SDS011;46892;45.668;11.756;2022-11-18T06:33:45;42.33;;;28.43;;
55312;SDS011;46892;45.668;11.756;2022-11-18T06:36:11;41.43;;;28.80;;
55312;SDS011;46892;45.668;11.756;2022-11-18T06:38:36;43.20;;;28.83;;
55312;SDS011;46892;45.668;11.756;2022-11-18T06:41:02;41.80;;;28.20;;
55312;SDS011;46892;45.668;11.756;2022-11-18T06:43:28;43.37;;;30.20;;
55312;SDS011;46892;45.668;11.756;2022-11-18T06:46:03;41.90;;;29.30;;
55312;SDS011;46892;45.668;11.756;2022-11-18T06:48:49;46.20;;;29.97;;
55312;SDS011;46892;45.668;11.756;2022-11-18T06:51:15;41.47;;;29.00;;
55312;SDS011;46892;45.668;11.756;2022-11-18T06:53:41;42.10;;;30.17;;
55312;SDS011;46892;45.668;11.756;2022-11-18T06:56:08;39.77;;;28.10;;
55312;SDS011;46892;45.668;11.756;2022-11-18T06:58:36;41.47;;;28.13;;
55312;SDS011;46892;45.668;11.756;2022-11-18T07:03:41;38.97;;;27.50;;
55312;SDS011;46892;45.668;11.756;2022-11-18T07:06:08;39.03;;;27.83;;
55312;SDS011;46892;45.668;11.756;2022-11-18T07:08:35;39.47;;;27.97;;
55312;SDS011;46892;45.668;11.756;2022-11-18T07:11:06;41.20;;;27.83;;
55312;SDS011;46892;45.668;11.756;2022-11-18T07:13:33;39.97;;;27.80;;
55312;SDS011;46892;45.668;11.756;2022-11-18T07:16:01;36.83;;;25.40;;
55312;SDS011;46892;45.668;11.756;2022-11-18T07:21:10;37.90;;;25.97;;
55312;SDS011;46892;45.668;11.756;2022-11-18T07:23:40;35.97;;;25.00;;
55312;SDS011;46892;45.668;11.756;2022-11-18T07:26:07;37.87;;;25.97;;
55312;SDS011;46892;45.668;11.756;2022-11-18T07:28:33;39.73;;;28.67;;
55312;SDS011;46892;45.668;11.756;2022-11-18T07:30:59;40.20;;;29.07;;
55312;SDS011;46892;45.668;11.756;2022-11-18T07:33:27;39.87;;;28.63;;
55312;SDS011;46892;45.668;11.756;2022-11-18T07:35:53;43.80;;;29.03;;
55312;SDS011;46892;45.668;11.756;2022-11-18T07:38:19;38.63;;;28.43;;
55312;SDS011;46892;45.668;11.756;2022-11-18T07:40:45;41.10;;;29.00;;
55312;SDS011;46892;45.668;11.756;2022-11-18T07:43:10;42.07;;;30.13;;
55312;SDS011;46892;45.668;11.756;2022-11-18T07:45:36;45.00;;;30.13;;
55312;SDS011;46892;45.668;11.756;2022-11-18T07:48:01;40.47;;;28.53;;
55312;SDS011;46892;45.668;11.756;2022-11-18T07:50:27;42.63;;;30.07;;
55312;SDS011;46892;45.668;11.756;2022-11-18T07:52:56;39.67;;;29.23;;
55312;SDS011;46892;45.668;11.756;2022-11-18T07:55:22;38.13;;;28.33;;
55312;SDS011;46892;45.668;11.756;2022-11-18T07:57:48;37.60;;;27.53;;
55312;SDS011;46892;45.668;11.756;2022-11-18T08:00:14;33.97;;;25.60;;
55312;SDS011;46892;45.668;11.756;2022-11-18T08:02:40;33.67;;;25.33;;
55312;SDS011;46892;45.668;11.756;2022-11-18T08:05:08;36.70;;;26.10;;
55312;SDS011;46892;45.668;11.756;2022-11-18T08:07:34;31.83;;;24.33;;
55312;SDS011;46892;45.668;11.756;2022-11-18T08:09:59;33.63;;;25.27;;
55312;SDS011;46892;45.668;11.756;2022-11-18T08:12:27;35.90;;;25.93;;
55312;SDS011;46892;45.668;11.756;2022-11-18T08:14:54;36.30;;;27.37;;
55312;SDS011;46892;45.668;11.756;2022-11-18T08:17:20;34.77;;;24.77;;
55312;SDS011;46892;45.668;11.756;2022-11-18T08:19:46;32.33;;;23.87;;
55312;SDS011;46892;45.668;11.756;2022-11-18T08:22:12;31.30;;;23.20;;
55312;SDS011;46892;45.668;11.756;2022-11-18T08:24:38;31.20;;;22.03;;
55312;SDS011;46892;45.668;11.756;2022-11-18T08:27:03;30.63;;;22.03;;
55312;SDS011;46892;45.668;11.756;2022-11-18T08:29:29;29.07;;;20.33;;
55312;SDS011;46892;45.668;11.756;2022-11-18T08:31:55;33.67;;;25.07;;
55312;SDS011;46892;45.668;11.756;2022-11-18T08:34:20;37.07;;;25.60;;
55312;SDS011;46892;45.668;11.756;2022-11-18T08:36:46;33.57;;;24.10;;
55312;SDS011;46892;45.668;11.756;2022-11-18T08:39:12;31.43;;;22.20;;
55312;SDS011;46892;45.668;11.756;2022-11-18T08:41:39;29.43;;;21.30;;
55312;SDS011;46892;45.668;11.756;2022-11-18T08:44:11;27.30;;;20.30;;
55312;SDS011;46892;45.668;11.756;2022-11-18T08:49:08;29.17;;;21.08;;
55312;SDS011;46892;45.668;11.756;2022-11-18T08:51:34;29.80;;;20.73;;
55312;SDS011;46892;45.668;11.756;2022-11-18T08:54:01;27.43;;;20.57;;
55312;SDS011;46892;45.668;11.756;2022-11-18T08:56:27;31.87;;;24.17;;
55312;SDS011;46892;45.668;11.756;2022-11-18T08:58:52;31.80;;;24.37;;
55312;SDS011;46892;45.668;11.756;2022-11-18T09:01:18;34.77;;;25.27;;
55312;SDS011;46892;45.668;11.756;2022-11-18T09:03:44;38.47;;;28.23;;
55312;SDS011;46892;45.668;11.756;2022-11-18T09:06:12;39.70;;;28.60;;
55312;SDS011;46892;45.668;11.756;2022-11-18T09:08:40;37.80;;;29.37;;
55312;SDS011;46892;45.668;11.756;2022-11-18T09:11:07;38.40;;;28.40;;
55312;SDS011;46892;45.668;11.756;2022-11-18T09:13:34;41.43;;;29.00;;
55312;SDS011;46892;45.668;11.756;2022-11-18T09:16:01;36.83;;;27.87;;
55312;SDS011;46892;45.668;11.756;2022-11-18T09:18:28;40.73;;;29.80;;
55312;SDS011;46892;45.668;11.756;2022-11-18T09:20:57;42.70;;;29.40;;
55312;SDS011;46892;45.668;11.756;2022-11-18T09:23:25;43.77;;;30.03;;
55312;SDS011;46892;45.668;11.756;2022-11-18T09:25:57;39.23;;;29.23;;
55312;SDS011;46892;45.668;11.756;2022-11-18T09:28:23;41.83;;;29.87;;
55312;SDS011;46892;45.668;11.756;2022-11-18T09:30:49;39.30;;;28.57;;
55312;SDS011;46892;45.668;11.756;2022-11-18T09:33:14;42.63;;;29.63;;
55312;SDS011;46892;45.668;11.756;2022-11-18T09:35:43;39.70;;;30.20;;
55312;SDS011;46892;45.668;11.756;2022-11-18T09:38:09;39.43;;;28.97;;
55312;SDS011;46892;45.668;11.756;2022-11-18T09:40:36;40.50;;;28.80;;
55312;SDS011;46892;45.668;11.756;2022-11-18T09:43:27;37.90;;;27.97;;
55312;SDS011;46892;45.668;11.756;2022-11-18T09:49:08;37.00;;;28.33;;
55312;SDS011;46892;45.668;11.756;2022-11-18T09:51:48;37.60;;;27.53;;
55312;SDS011;46892;45.668;11.756;2022-11-18T09:54:18;35.97;;;27.37;;
55312;SDS011;46892;45.668;11.756;2022-11-18T09:56:47;39.03;;;29.60;;
55312;SDS011;46892;45.668;11.756;2022-11-18T09:59:14;39.70;;;30.10;;
55312;SDS011;46892;45.668;11.756;2022-11-18T10:01:43;36.80;;;27.57;;
55312;SDS011;46892;45.668;11.756;2022-11-18T10:04:13;32.83;;;26.40;;
55312;SDS011;46892;45.668;11.756;2022-11-18T10:06:43;33.70;;;25.23;;
55312;SDS011;46892;45.668;11.756;2022-11-18T10:09:43;33.47;;;25.20;;
55312;SDS011;46892;45.668;11.756;2022-11-18T10:15:25;41.47;;;30.03;;
55312;SDS011;46892;45.668;11.756;2022-11-18T10:17:57;36.73;;;28.30;;
55312;SDS011;46892;45.668;11.756;2022-11-18T10:20:31;35.33;;;27.07;;
55312;SDS011;46892;45.668;11.756;2022-11-18T10:23:10;33.93;;;26.10;;
55312;SDS011;46892;45.668;11.756;2022-11-18T10:25:56;30.17;;;24.57;;
55312;SDS011;46892;45.668;11.756;2022-11-18T10:28:23;29.17;;;22.97;;
55312;SDS011;46892;45.668;11.756;2022-11-18T10:35:49;33.55;;;24.95;;
55312;SDS011;46892;45.668;11.756;2022-11-18T10:38:32;31.90;;;24.03;;
55312;SDS011;46892;45.668;11.756;2022-11-18T10:40:58;32.33;;;24.17;;
55312;SDS011;46892;45.668;11.756;2022-11-18T10:46:32;30.97;;;23.50;;
55312;SDS011;46892;45.668;11.756;2022-11-18T10:51:38;25.97;;;20.30;;
55312;SDS011;46892;45.668;11.756;2022-11-18T10:54:07;26.30;;;20.10;;
55312;SDS011;46892;45.668;11.756;2022-11-18T10:56:45;28.77;;;21.43;;
55312;SDS011;46892;45.668;11.756;2022-11-18T10:59:17;27.43;;;20.33;;
55312;SDS011;46892;45.668;11.756;2022-11-18T11:05:18;28.20;;;21.37;;
55312;SDS011;46892;45.668;11.756;2022-11-18T11:07:52;27.97;;;20.57;;
55312;SDS011;46892;45.668;11.756;2022-11-18T11:10:25;31.17;;;22.97;;
55312;SDS011;46892;45.668;11.756;2022-11-18T11:12:52;35.37;;;26.93;;
55312;SDS011;46892;45.668;11.756;2022-11-18T11:17:59;35.73;;;25.97;;
55312;SDS011;46892;45.668;11.756;2022-11-18T11:21:01;36.33;;;25.33;;
55312;SDS011;46892;45.668;11.756;2022-11-18T11:23:26;35.53;;;24.57;;
55312;SDS011;46892;45.668;11.756;2022-11-18T11:25:58;35.53;;;22.87;;
55312;SDS011;46892;45.668;11.756;2022-11-18T11:28:28;36.63;;;24.27;;
55312;SDS011;46892;45.668;11.756;2022-11-18T11:33:57;42.67;;;29.27;;
55312;SDS011;46892;45.668;11.756;2022-11-18T11:36:31;46.63;;;30.87;;
55312;SDS011;46892;45.668;11.756;2022-11-18T11:47:33;43.87;;;28.47;;
55312;SDS011;46892;45.668;11.756;2022-11-18T11:53:30;42.07;;;27.23;;
55312;SDS011;46892;45.668;11.756;2022-11-18T12:04:49;37.23;;;25.17;;
55312;SDS011;46892;45.668;11.756;2022-11-18T12:07:29;42.33;;;28.37;;
55312;SDS011;46892;45.668;11.756;2022-11-18T12:21:00;39.10;;;27.93;;
55312;SDS011;46892;45.668;11.756;2022-11-18T12:23:27;40.23;;;27.83;;
55312;SDS011;46892;45.668;11.756;2022-11-18T12:26:09;39.10;;;27.10;;
55312;SDS011;46892;45.668;11.756;2022-11-18T12:33:55;38.70;;;27.10;;
55312;SDS011;46892;45.668;11.756;2022-11-18T12:36:26;46.17;;;26.03;;
55312;SDS011;46892;45.668;11.756;2022-11-18T12:38:56;41.53;;;27.40;;
55312;SDS011;46892;45.668;11.756;2022-11-18T12:44:23;37.47;;;25.43;;
55312;SDS011;46892;45.668;11.756;2022-11-18T12:46:51;39.67;;;28.07;;
55312;SDS011;46892;45.668;11.756;2022-11-18T12:54:54;36.23;;;26.47;;
55312;SDS011;46892;45.668;11.756;2022-11-18T12:57:23;38.67;;;26.43;;
55312;SDS011;46892;45.668;11.756;2022-11-18T12:59:52;34.00;;;25.13;;
55312;SDS011;46892;45.668;11.756;2022-11-18T13:02:36;41.57;;;27.83;;
55312;SDS011;46892;45.668;11.756;2022-11-18T13:08:17;37.47;;;28.10;;
55312;SDS011;46892;45.668;11.756;2022-11-18T13:10:50;37.70;;;27.07;;
55312;SDS011;46892;45.668;11.756;2022-11-18T13:13:38;41.33;;;29.83;;
55312;SDS011;46892;45.668;11.756;2022-11-18T13:16:18;36.93;;;26.83;;
55312;SDS011;46892;45.668;11.756;2022-11-18T13:19:06;40.50;;;29.40;;
55312;SDS011;46892;45.668;11.756;2022-11-18T13:21:32;39.73;;;28.57;;
55312;SDS011;46892;45.668;11.756;2022-11-18T13:24:18;41.63;;;28.27;;
55312;SDS011;46892;45.668;11.756;2022-11-18T13:26:45;36.67;;;26.57;;
55312;SDS011;46892;45.668;11.756;2022-11-18T13:29:33;36.23;;;25.47;;
55312;SDS011;46892;45.668;11.756;2022-11-18T13:32:40;37.93;;;25.60;;
55312;SDS011;46892;45.668;11.756;2022-11-18T13:35:06;37.33;;;26.67;;
55312;SDS011;46892;45.668;11.756;2022-11-18T13:38:00;34.15;;;25.17;;
55312;SDS011;46892;45.668;11.756;2022-11-18T13:42:55;36.30;;;25.33;;
55312;SDS011;46892;45.668;11.756;2022-11-18T13:45:22;39.00;;;26.50;;
55312;SDS011;46892;45.668;11.756;2022-11-18T13:50:39;35.97;;;26.67;;
55312;SDS011;46892;45.668;11.756;2022-11-18T13:53:36;37.07;;;26.70;;
55312;SDS011;46892;45.668;11.756;2022-11-18T14:01:11;33.50;;;24.90;;
55312;SDS011;46892;45.668;11.756;2022-11-18T14:04:03;36.03;;;24.67;;
55312;SDS011;46892;45.668;11.756;2022-11-18T14:06:37;33.03;;;22.63;;
55312;SDS011;46892;45.668;11.756;2022-11-18T14:09:18;35.23;;;24.73;;
55312;SDS011;46892;45.668;11.756;2022-11-18T14:16:54;38.43;;;26.37;;
55312;SDS011;46892;45.668;11.756;2022-11-18T14:19:29;39.60;;;26.70;;
55312;SDS011;46892;45.668;11.756;2022-11-18T14:22:03;36.53;;;24.83;;
55312;SDS011;46892;45.668;11.756;2022-11-18T14:24:30;32.50;;;22.93;;
55312;SDS011;46892;45.668;11.756;2022-11-18T14:26:56;32.60;;;24.03;;
55312;SDS011;46892;45.668;11.756;2022-11-18T14:29:21;31.57;;;22.30;;
55312;SDS011;46892;45.668;11.756;2022-11-18T14:34:28;33.67;;;24.17;;
55312;SDS011;46892;45.668;11.756;2022-11-18T14:36:55;32.17;;;22.70;;
55312;SDS011;46892;45.668;11.756;2022-11-18T14:39:22;31.23;;;23.83;;
55312;SDS011;46892;45.668;11.756;2022-11-18T14:41:49;34.27;;;24.07;;
55312;SDS011;46892;45.668;11.756;2022-11-18T14:44:18;32.93;;;22.70;;
55312;SDS011;46892;45.668;11.756;2022-11-18T14:46:49;32.92;;;23.15;;
55312;SDS011;46892;45.668;11.756;2022-11-18T14:49:19;31.33;;;21.67;;
55312;SDS011;46892;45.668;11.756;2022-11-18T14:51:47;29.00;;;22.33;;
55312;SDS011;46892;45.668;11.756;2022-11-18T14:54:14;36.03;;;24.47;;
55312;SDS011;46892;45.668;11.756;2022-11-18T14:56:40;29.70;;;22.57;;
55312;SDS011;46892;45.668;11.756;2022-11-18T14:59:11;30.07;;;21.60;;
55312;SDS011;46892;45.668;11.756;2022-11-18T15:04:04;31.00;;;22.00;;
55312;SDS011;46892;45.668;11.756;2022-11-18T15:06:30;28.43;;;20.80;;
55312;SDS011;46892;45.668;11.756;2022-11-18T15:08:56;60.13;;;23.73;;
55312;SDS011;46892;45.668;11.756;2022-11-18T15:11:21;36.00;;;21.70;;
55312;SDS011;46892;45.668;11.756;2022-11-18T15:13:47;33.57;;;23.00;;
55312;SDS011;46892;45.668;11.756;2022-11-18T15:18:41;31.73;;;21.50;;
55312;SDS011;46892;45.668;11.756;2022-11-18T15:21:08;31.37;;;21.30;;
55312;SDS011;46892;45.668;11.756;2022-11-18T15:23:34;32.27;;;22.90;;
55312;SDS011;46892;45.668;11.756;2022-11-18T15:26:00;34.27;;;23.60;;
55312;SDS011;46892;45.668;11.756;2022-11-18T15:28:27;35.13;;;25.30;;
55312;SDS011;46892;45.668;11.756;2022-11-18T15:30:53;32.57;;;24.20;;
55312;SDS011;46892;45.668;11.756;2022-11-18T15:33:19;38.87;;;26.77;;
55312;SDS011;46892;45.668;11.756;2022-11-18T15:35:45;37.00;;;26.97;;
55312;SDS011;46892;45.668;11.756;2022-11-18T15:38:11;37.53;;;27.17;;
55312;SDS011;46892;45.668;11.756;2022-11-18T15:40:37;38.50;;;28.00;;
55312;SDS011;46892;45.668;11.756;2022-11-18T15:43:03;38.03;;;27.53;;
55312;SDS011;46892;45.668;11.756;2022-11-18T15:45:29;39.17;;;27.33;;
55312;SDS011;46892;45.668;11.756;2022-11-18T15:47:54;40.90;;;28.23;;
55312;SDS011;46892;45.668;11.756;2022-11-18T15:50:20;41.13;;;30.03;;
55312;SDS011;46892;45.668;11.756;2022-11-18T15:52:45;48.97;;;31.67;;
55312;SDS011;46892;45.668;11.756;2022-11-18T15:55:11;46.73;;;32.77;;
55312;SDS011;46892;45.668;11.756;2022-11-18T15:57:37;44.07;;;30.77;;
55312;SDS011;46892;45.668;11.756;2022-11-18T16:00:03;41.97;;;30.37;;
55312;SDS011;46892;45.668;11.756;2022-11-18T16:02:29;42.30;;;31.20;;
55312;SDS011;46892;45.668;11.756;2022-11-18T16:04:54;45.40;;;31.60;;
55312;SDS011;46892;45.668;11.756;2022-11-18T16:07:20;41.17;;;30.20;;
55312;SDS011;46892;45.668;11.756;2022-11-18T16:09:46;47.37;;;32.33;;
55312;SDS011;46892;45.668;11.756;2022-11-18T16:12:30;45.67;;;32.67;;
55312;SDS011;46892;45.668;11.756;2022-11-18T16:15:11;44.50;;;31.58;;
55312;SDS011;46892;45.668;11.756;2022-11-18T16:18:00;47.63;;;32.00;;
55312;SDS011;46892;45.668;11.756;2022-11-18T16:20:26;51.83;;;34.27;;
55312;SDS011;46892;45.668;11.756;2022-11-18T16:22:54;49.43;;;34.27;;
55312;SDS011;46892;45.668;11.756;2022-11-18T16:25:20;44.73;;;32.10;;
55312;SDS011;46892;45.668;11.756;2022-11-18T16:27:47;43.47;;;31.43;;
55312;SDS011;46892;45.668;11.756;2022-11-18T16:30:13;48.03;;;33.60;;
55312;SDS011;46892;45.668;11.756;2022-11-18T16:32:57;57.03;;;37.77;;
55312;SDS011;46892;45.668;11.756;2022-11-18T16:35:23;53.43;;;37.07;;
55312;SDS011;46892;45.668;11.756;2022-11-18T16:37:49;52.60;;;35.33;;
55312;SDS011;46892;45.668;11.756;2022-11-18T16:40:15;49.90;;;34.87;;